createdAt,value
2024-04-23T00:00:37.627Z,2.30
2024-04-23T00:03:04.750Z,2.25
2024-04-23T00:05:31.508Z,2.80
2024-04-23T00:07:58.286Z,2.40
2024-04-23T00:10:25.069Z,2.00
2024-04-23T00:12:51.805Z,2.10
2024-04-23T00:15:18.610Z,2.85
2024-04-23T00:17:45.385Z,2.08
2024-04-23T00:20:12.264Z,2.75
2024-04-23T00:22:39.098Z,2.30
2024-04-23T00:25:06.290Z,2.30
2024-04-23T00:27:32.999Z,2.58
2024-04-23T00:29:59.694Z,2.40
2024-04-23T00:32:26.388Z,2.47
2024-04-23T00:34:53.312Z,2.78
2024-04-23T00:37:20.019Z,2.08
2024-04-23T00:39:46.725Z,2.58
2024-04-23T00:42:13.522Z,2.28
2024-04-23T00:44:40.281Z,2.45
2024-04-23T00:47:07.232Z,2.78
2024-04-23T00:49:34.039Z,2.33
2024-04-23T00:52:00.947Z,2.42
2024-04-23T00:54:28.067Z,2.40
2024-04-23T00:56:57.685Z,2.65
2024-04-23T00:59:24.813Z,2.22
2024-04-23T01:01:52.339Z,2.47
2024-04-23T01:04:19.591Z,2.80
2024-04-23T01:06:51.122Z,2.92
2024-04-23T01:09:21.494Z,2.58
2024-04-23T01:11:49.967Z,2.75
2024-04-23T01:14:17.231Z,2.47
2024-04-23T01:16:46.951Z,2.45
2024-04-23T01:20:03.095Z,2.40
2024-04-23T01:22:47.212Z,2.70
2024-04-23T01:25:16.575Z,2.45
2024-04-23T01:27:44.570Z,2.63
2024-04-23T01:30:12.843Z,3.15
2024-04-23T01:32:41.918Z,2.50
2024-04-23T01:35:10.258Z,2.53
2024-04-23T01:37:40.077Z,2.38
2024-04-23T01:40:08.379Z,2.60
2024-04-23T01:42:35.887Z,2.65
2024-04-23T01:45:03.143Z,2.30
2024-04-23T01:47:30.137Z,2.63
2024-04-23T01:49:57.477Z,2.65
2024-04-23T01:52:24.372Z,2.55
2024-04-23T01:54:51.436Z,2.83
2024-04-23T01:57:19.122Z,2.67
2024-04-23T01:59:49.858Z,2.67
2024-04-23T02:02:18.204Z,2.53
2024-04-23T02:04:45.950Z,2.55
2024-04-23T02:07:14.082Z,3.00
2024-04-23T02:09:42.489Z,3.00
2024-04-23T02:12:13.639Z,2.83
2024-04-23T02:14:40.433Z,3.13
2024-04-23T02:17:07.436Z,2.65
2024-04-23T02:19:34.307Z,2.92
2024-04-23T02:22:01.117Z,3.58
2024-04-23T02:24:27.834Z,3.35
2024-04-23T02:26:54.573Z,3.00
2024-04-23T02:29:21.278Z,2.63
2024-04-23T02:31:48.018Z,2.50
2024-04-23T02:34:14.834Z,2.80
2024-04-23T02:36:41.543Z,3.22
2024-04-23T02:39:08.263Z,3.20
2024-04-23T02:41:37.999Z,2.33
2024-04-23T02:44:05.037Z,2.67
2024-04-23T02:46:31.749Z,2.72
2024-04-23T02:48:58.489Z,2.78
2024-04-23T02:51:25.216Z,2.92
2024-04-23T02:53:51.944Z,3.33
2024-04-23T02:56:18.679Z,3.08
2024-04-23T02:58:45.453Z,3.30
2024-04-23T03:01:12.363Z,2.95
2024-04-23T03:03:39.134Z,2.88
2024-04-23T03:06:06.070Z,3.05
2024-04-23T03:08:35.423Z,2.97
2024-04-23T03:11:03.598Z,3.10
2024-04-23T03:13:30.407Z,3.03
2024-04-23T03:15:57.131Z,3.17
2024-04-23T03:18:23.952Z,2.75
2024-04-23T03:20:50.723Z,2.88
2024-04-23T03:23:17.409Z,3.58
2024-04-23T03:25:44.137Z,3.45
2024-04-23T03:28:10.882Z,4.78
2024-04-23T03:30:37.659Z,3.42
2024-04-23T03:33:04.721Z,3.28
2024-04-23T03:35:31.566Z,3.33
2024-04-23T03:37:58.430Z,3.67
2024-04-23T03:40:25.260Z,2.67
2024-04-23T03:42:52.078Z,3.63
2024-04-23T03:45:18.791Z,3.08
2024-04-23T03:47:45.662Z,3.40
2024-04-23T03:50:12.429Z,3.97
2024-04-23T03:52:39.187Z,3.58
2024-04-23T03:55:05.986Z,3.38
2024-04-23T03:57:32.776Z,2.90
2024-04-23T03:59:59.540Z,3.78
2024-04-23T04:02:44.731Z,3.50
2024-04-23T04:05:30.504Z,3.70
2024-04-23T04:07:57.286Z,3.47
2024-04-23T04:10:24.202Z,3.20
2024-04-23T04:12:56.377Z,4.05
2024-04-23T04:15:30.298Z,3.35
2024-04-23T04:17:57.179Z,3.22
2024-04-23T04:20:24.003Z,3.20
2024-04-23T04:22:50.747Z,3.35
2024-04-23T04:25:17.507Z,3.50
2024-04-23T04:27:44.292Z,3.63
2024-04-23T04:30:11.219Z,3.67
2024-04-23T04:32:38.027Z,3.90
2024-04-23T04:35:05.401Z,3.53
2024-04-23T04:37:35.958Z,3.78
2024-04-23T04:40:02.897Z,3.13
2024-04-23T04:42:29.594Z,3.92
2024-04-23T04:44:56.341Z,3.55
2024-04-23T04:47:23.285Z,4.55
2024-04-23T04:49:50.118Z,4.05
2024-04-23T04:52:17.125Z,3.25
2024-04-23T04:54:43.835Z,3.75
2024-04-23T04:57:10.614Z,4.20
2024-04-23T04:59:37.380Z,4.03
2024-04-23T05:02:04.157Z,3.90
2024-04-23T05:04:30.981Z,3.90
2024-04-23T05:06:57.706Z,3.72
2024-04-23T05:09:24.428Z,3.95
2024-04-23T05:11:51.239Z,4.68
2024-04-23T05:14:19.343Z,3.97
2024-04-23T05:16:46.081Z,4.80
2024-04-23T05:19:12.860Z,4.63
2024-04-23T05:21:39.775Z,4.30
2024-04-23T05:24:06.732Z,4.32
2024-04-23T05:26:33.429Z,4.38
2024-04-23T05:29:00.294Z,4.32
2024-04-23T05:31:45.903Z,4.93
2024-04-23T05:34:12.706Z,4.00
2024-04-23T05:36:39.423Z,4.57
2024-04-23T05:39:06.374Z,4.93
2024-04-23T05:41:33.263Z,4.10
2024-04-23T05:44:00.896Z,5.03
2024-04-23T05:46:27.959Z,4.55
2024-04-23T05:49:32.175Z,4.60
2024-04-23T05:52:36.749Z,4.15
2024-04-23T05:55:34.425Z,4.22
2024-04-23T05:58:01.726Z,4.40
2024-04-23T06:00:28.491Z,4.55
2024-04-23T06:02:55.643Z,4.93
2024-04-23T06:05:24.283Z,4.32
2024-04-23T06:07:51.137Z,4.28
2024-04-23T06:10:17.899Z,4.80
2024-04-23T06:12:46.755Z,5.20
2024-04-23T06:15:14.864Z,5.10
2024-04-23T06:17:47.758Z,5.20
2024-04-23T06:20:16.179Z,5.30
2024-04-23T06:22:44.151Z,4.85
2024-04-23T06:25:11.610Z,4.75
2024-04-23T06:27:39.866Z,5.47
2024-04-23T06:30:11.568Z,4.97
2024-04-23T06:32:40.024Z,4.85
2024-04-23T06:35:07.573Z,5.07
2024-04-23T06:37:34.593Z,4.95
2024-04-23T06:40:01.580Z,5.00
2024-04-23T06:42:28.428Z,4.65
2024-04-23T06:44:56.304Z,4.22
2024-04-23T06:47:23.270Z,5.43
2024-04-23T06:49:49.991Z,4.95
2024-04-23T06:52:18.381Z,6.05
2024-04-23T06:54:45.520Z,5.57
2024-04-23T06:57:12.375Z,5.20
2024-04-23T06:59:39.244Z,5.35
2024-04-23T07:02:06.361Z,5.68
2024-04-23T07:04:33.349Z,6.13
2024-04-23T07:07:01.980Z,5.43
2024-04-23T07:09:28.735Z,5.43
2024-04-23T07:11:55.559Z,5.72
2024-04-23T07:14:22.309Z,5.95
2024-04-23T07:16:49.847Z,5.63
2024-04-23T07:19:16.755Z,6.18
2024-04-23T07:21:43.553Z,6.03
2024-04-23T07:24:10.279Z,6.18
2024-04-23T07:26:36.977Z,5.68
2024-04-23T07:29:03.742Z,5.50
2024-04-23T07:31:30.468Z,5.85
2024-04-23T07:33:57.171Z,6.45
2024-04-23T07:36:24.824Z,6.43
2024-04-23T07:38:51.607Z,6.47
2024-04-23T07:41:18.297Z,5.95
2024-04-23T07:43:45.077Z,6.22
2024-04-23T07:46:11.851Z,6.03
2024-04-23T07:48:38.678Z,6.78
2024-04-23T07:51:05.728Z,6.63
2024-04-23T07:53:34.018Z,5.32
2024-04-23T07:56:00.923Z,5.85
2024-04-23T07:58:28.092Z,5.53
2024-04-23T08:00:56.574Z,6.85
2024-04-23T08:03:23.453Z,6.32
2024-04-23T08:05:55.216Z,6.70
2024-04-23T08:08:22.675Z,6.85
2024-04-23T08:10:51.046Z,5.90
2024-04-23T08:13:17.970Z,5.90
2024-04-23T08:15:45.033Z,6.55
2024-04-23T08:18:12.217Z,6.18
2024-04-23T08:20:41.839Z,6.38
2024-04-23T08:23:09.385Z,6.20
2024-04-23T08:25:36.227Z,5.85
2024-04-23T08:28:03.012Z,6.43
2024-04-23T08:30:29.766Z,5.97
2024-04-23T08:32:56.752Z,6.18
2024-04-23T08:35:23.613Z,6.18
2024-04-23T08:37:50.544Z,5.13
2024-04-23T08:40:17.365Z,5.82
2024-04-23T08:42:46.308Z,5.88
2024-04-23T08:45:15.739Z,5.93
2024-04-23T08:47:43.487Z,5.43
2024-04-23T08:50:11.037Z,5.70
2024-04-23T08:52:39.106Z,5.55
2024-04-23T08:55:07.116Z,5.65
2024-04-23T08:57:35.092Z,5.75
2024-04-23T09:00:04.502Z,5.00
2024-04-23T09:02:37.943Z,5.53
2024-04-23T09:05:06.794Z,5.03
2024-04-23T09:07:36.497Z,5.30
2024-04-23T09:10:05.081Z,5.07
2024-04-23T09:12:32.279Z,5.28
2024-04-23T09:15:00.784Z,5.60
2024-04-23T09:17:28.964Z,6.38
2024-04-23T09:19:56.117Z,5.47
2024-04-23T09:22:22.880Z,5.03
2024-04-23T09:24:49.604Z,5.22
2024-04-23T09:27:16.406Z,5.07
2024-04-23T09:29:43.196Z,5.53
2024-04-23T09:32:10.751Z,4.60
2024-04-23T09:34:39.677Z,5.35
2024-04-23T09:37:16.926Z,4.78
2024-04-23T09:39:46.568Z,4.47
2024-04-23T09:42:23.248Z,4.75
2024-04-23T09:44:52.063Z,5.00
2024-04-23T09:47:19.490Z,4.60
2024-04-23T09:49:58.901Z,5.45
2024-04-23T09:52:33.682Z,4.97
2024-04-23T09:55:01.175Z,4.85
2024-04-23T09:57:28.131Z,4.45
2024-04-23T09:59:55.010Z,5.00
2024-04-23T10:02:27.527Z,4.35
2024-04-23T10:05:16.689Z,4.72
2024-04-23T10:08:05.283Z,4.35
2024-04-23T10:10:41.707Z,4.45
2024-04-23T10:13:10.649Z,4.35
2024-04-23T10:15:46.687Z,4.20
2024-04-23T10:18:30.267Z,4.50
2024-04-23T10:20:59.200Z,3.85
2024-04-23T10:23:26.310Z,4.25
2024-04-23T10:25:54.378Z,4.30
2024-04-23T10:28:21.381Z,3.85
2024-04-23T10:30:49.086Z,3.25
2024-04-23T10:33:18.869Z,3.55
2024-04-23T10:35:48.542Z,3.88
2024-04-23T10:38:17.475Z,4.20
2024-04-23T10:40:56.334Z,4.57
2024-04-23T10:43:27.114Z,3.80
2024-04-23T10:45:53.994Z,3.70
2024-04-23T10:48:28.172Z,3.88
2024-04-23T10:50:56.858Z,3.90
2024-04-23T10:53:23.830Z,4.75
2024-04-23T10:55:51.960Z,4.82
2024-04-23T10:58:21.126Z,4.18
2024-04-23T11:00:48.019Z,4.13
2024-04-23T11:03:18.978Z,4.35
2024-04-23T11:05:47.911Z,4.15
2024-04-23T11:08:32.256Z,5.80
2024-04-23T11:11:06.463Z,4.78
2024-04-23T11:13:41.195Z,4.82
2024-04-23T11:16:16.208Z,5.68
2024-04-23T11:18:44.791Z,4.95
2024-04-23T11:21:12.151Z,4.50
2024-04-23T11:23:41.307Z,5.35
2024-04-23T11:26:11.900Z,4.97
2024-04-23T11:28:39.778Z,4.38
2024-04-23T11:31:07.116Z,5.95
2024-04-23T11:33:34.148Z,5.65
2024-04-23T11:36:01.125Z,5.50
2024-04-23T11:38:27.889Z,4.78
2024-04-23T11:41:18.459Z,5.38
2024-04-23T11:43:47.105Z,6.43
2024-04-23T11:46:15.418Z,5.78
2024-04-23T11:48:43.020Z,5.28
2024-04-23T11:51:10.540Z,5.35
2024-04-23T11:53:37.313Z,6.18
2024-04-23T11:56:04.369Z,6.18
2024-04-23T11:58:31.347Z,7.50
2024-04-23T12:00:58.066Z,5.68
2024-04-23T12:03:25.810Z,6.00
2024-04-23T12:05:52.794Z,6.18
2024-04-23T12:08:19.659Z,6.38
2024-04-23T12:10:47.241Z,6.13
2024-04-23T12:13:19.749Z,5.85
2024-04-23T12:15:46.547Z,6.15
2024-04-23T12:18:13.646Z,5.60
2024-04-23T12:20:40.526Z,5.82
2024-04-23T12:23:14.016Z,5.60
2024-04-23T12:25:42.563Z,6.00
2024-04-23T12:28:11.891Z,5.63
2024-04-23T12:30:40.279Z,4.70
2024-04-23T12:33:11.838Z,5.15
2024-04-23T12:35:39.455Z,4.65
2024-04-23T12:38:07.978Z,5.20
2024-04-23T12:40:35.655Z,4.55
2024-04-23T12:43:08.643Z,4.82
2024-04-23T12:45:36.262Z,3.92
2024-04-23T12:48:04.963Z,4.03
2024-04-23T12:50:32.939Z,4.03
2024-04-23T12:53:00.262Z,4.25
2024-04-23T12:55:29.318Z,4.03
2024-04-23T12:57:56.273Z,3.40
2024-04-23T13:00:23.093Z,3.28
2024-04-23T13:02:50.015Z,3.50
2024-04-23T13:05:16.987Z,3.15
2024-04-23T13:07:43.824Z,2.67
2024-04-23T13:10:11.157Z,3.03
2024-04-23T13:12:37.947Z,2.95
2024-04-23T13:15:04.947Z,3.42
2024-04-23T13:17:31.838Z,2.78
2024-04-23T13:20:01.260Z,2.97
2024-04-23T13:22:28.777Z,2.60
2024-04-23T13:24:55.554Z,3.00
2024-04-23T13:27:22.333Z,2.88
2024-04-23T13:29:49.181Z,2.75
2024-04-23T13:32:16.095Z,3.38
2024-04-23T13:34:42.930Z,2.72
2024-04-23T13:37:09.720Z,2.72
2024-04-23T13:39:36.628Z,2.80
2024-04-23T13:42:03.498Z,2.80
2024-04-23T13:44:30.751Z,3.10
2024-04-23T13:46:57.805Z,3.10
2024-04-23T13:49:24.623Z,4.30
2024-04-23T13:51:51.428Z,3.03
2024-04-23T13:54:18.176Z,3.72
2024-04-23T13:56:44.872Z,3.30
2024-04-23T13:59:13.641Z,3.38
2024-04-23T14:01:41.844Z,3.20
2024-04-23T14:04:08.815Z,3.55
2024-04-23T14:06:35.687Z,3.33
2024-04-23T14:09:02.407Z,3.28
2024-04-23T14:11:31.278Z,3.55
2024-04-23T14:13:58.183Z,3.40
2024-04-23T14:16:25.238Z,3.50
2024-04-23T14:18:53.257Z,3.30
2024-04-23T14:21:20.087Z,3.40
2024-04-23T14:23:47.182Z,3.53
2024-04-23T14:26:18.987Z,4.07
2024-04-23T14:28:46.028Z,4.22
2024-04-23T14:31:13.160Z,4.32
2024-04-23T14:33:44.984Z,4.20
2024-04-23T14:36:12.921Z,3.97
2024-04-23T14:38:40.779Z,3.28
2024-04-23T14:41:07.909Z,3.42
2024-04-23T14:43:34.996Z,3.50
2024-04-23T14:46:12.759Z,2.95
2024-04-23T14:48:40.086Z,2.70
2024-04-23T14:51:07.116Z,3.30
2024-04-23T14:53:33.874Z,3.20
2024-04-23T14:56:02.651Z,3.03
2024-04-23T14:58:30.900Z,2.70
2024-04-23T15:00:58.019Z,3.67
2024-04-23T15:03:25.339Z,3.13
2024-04-23T15:05:52.204Z,3.05
2024-04-23T15:08:19.001Z,3.03
2024-04-23T15:10:50.745Z,3.45
2024-04-23T15:13:22.483Z,3.60
2024-04-23T15:16:02.495Z,2.60
2024-04-23T15:18:34.545Z,3.20
2024-04-23T15:21:05.454Z,3.17
2024-04-23T15:23:32.998Z,3.30
2024-04-23T15:26:03.238Z,2.55
2024-04-23T15:28:34.538Z,2.80
2024-04-23T15:31:05.628Z,3.10
2024-04-23T15:33:36.334Z,2.95
2024-04-23T15:36:09.996Z,2.78
2024-04-23T15:38:40.068Z,2.58
2024-04-23T15:41:11.787Z,2.15
2024-04-23T15:43:38.725Z,2.38
2024-04-23T15:46:11.776Z,2.33
2024-04-23T15:48:38.580Z,6.20
2024-04-23T15:51:05.411Z,3.33
2024-04-23T15:53:35.360Z,3.35
2024-04-23T15:56:03.153Z,3.08
2024-04-23T15:58:30.340Z,2.80
2024-04-23T16:01:07.962Z,2.90
2024-04-23T16:03:36.513Z,2.75
2024-04-23T16:06:04.626Z,3.42
2024-04-23T16:08:35.596Z,2.85
2024-04-23T16:11:05.567Z,3.22
2024-04-23T16:13:33.351Z,4.63
2024-04-23T16:16:01.437Z,4.00
2024-04-23T16:18:29.584Z,3.92
2024-04-23T16:21:00.538Z,4.00
2024-04-23T16:23:30.363Z,3.63
2024-04-23T16:28:28.262Z,3.28
2024-04-23T16:31:01.586Z,3.30
2024-04-23T16:33:28.514Z,3.03
2024-04-23T16:35:59.734Z,3.30
2024-04-23T16:38:26.437Z,2.97
2024-04-23T16:41:00.393Z,2.63
2024-04-23T16:43:27.294Z,3.45
2024-04-23T16:45:54.377Z,3.13
2024-04-23T16:48:21.351Z,3.00
2024-04-23T16:50:52.216Z,3.00
2024-04-23T16:53:19.143Z,2.55
2024-04-23T16:55:45.943Z,2.70
2024-04-23T16:58:15.480Z,2.15
2024-04-23T17:00:42.219Z,2.17
2024-04-23T17:03:09.182Z,2.60
2024-04-23T17:05:36.088Z,1.92
2024-04-23T17:08:02.933Z,1.98
2024-04-23T17:10:29.630Z,1.98
2024-04-23T17:12:58.247Z,1.95
2024-04-23T17:15:27.934Z,1.73
2024-04-23T17:17:55.258Z,2.35
2024-04-23T17:20:22.240Z,2.30
2024-04-23T17:22:51.117Z,2.53
2024-04-23T17:25:18.429Z,2.90
2024-04-23T17:27:45.189Z,2.60
2024-04-23T17:30:12.024Z,2.50
2024-04-23T17:32:39.160Z,3.20
2024-04-23T17:35:06.314Z,2.90
2024-04-23T17:37:33.057Z,3.63
2024-04-23T17:39:59.769Z,3.28
2024-04-23T17:42:26.541Z,3.05
2024-04-23T17:44:53.674Z,3.30
2024-04-23T17:47:20.453Z,4.35
2024-04-23T17:49:47.257Z,3.30
2024-04-23T17:52:14.091Z,2.30
2024-04-23T17:54:40.787Z,2.60
2024-04-23T17:57:09.553Z,3.00
2024-04-23T17:59:36.626Z,2.97
2024-04-23T18:02:03.369Z,2.90
2024-04-23T18:04:30.186Z,3.05
2024-04-23T18:06:58.588Z,3.30
2024-04-23T18:09:25.487Z,3.65
2024-04-23T18:11:52.331Z,3.30
2024-04-23T18:14:19.079Z,3.20
2024-04-23T18:16:45.881Z,2.75
2024-04-23T18:19:12.691Z,2.90
2024-04-23T18:21:39.406Z,2.95
2024-04-23T18:24:08.685Z,3.13
2024-04-23T18:26:35.367Z,2.90
2024-04-23T18:29:02.219Z,2.90
2024-04-23T18:31:28.956Z,2.90
2024-04-23T18:33:56.892Z,2.95
2024-04-23T18:36:23.609Z,2.50
2024-04-23T18:38:58.109Z,2.80
2024-04-23T18:41:24.928Z,3.00
2024-04-23T18:43:51.850Z,2.75
2024-04-23T18:46:18.996Z,2.83
2024-04-23T18:48:46.228Z,2.20
2024-04-23T18:51:14.878Z,3.30
2024-04-23T18:53:42.669Z,3.10
2024-04-23T18:56:11.309Z,3.40
2024-04-23T18:58:38.208Z,3.80
2024-04-23T19:01:09.285Z,4.10
2024-04-23T19:03:36.355Z,3.80
2024-04-23T19:06:23.931Z,4.15
2024-04-23T19:08:51.407Z,3.92
2024-04-23T19:11:26.419Z,3.67
2024-04-23T19:16:28.249Z,4.88
2024-04-23T19:18:55.155Z,4.70
2024-04-23T19:21:25.901Z,6.00
2024-04-23T19:23:53.985Z,5.97
2024-04-23T19:26:20.903Z,6.43
2024-04-23T19:28:48.757Z,6.88
2024-04-23T19:31:16.003Z,6.43
2024-04-23T19:33:43.272Z,6.55
2024-04-23T19:36:12.011Z,6.00
2024-04-23T19:38:39.986Z,6.68
2024-04-23T19:41:14.150Z,6.50
2024-04-23T19:43:51.728Z,5.63
2024-04-23T19:46:21.498Z,4.75
2024-04-23T19:48:48.979Z,5.00
2024-04-23T19:51:18.086Z,4.80
2024-04-23T19:53:50.304Z,4.95
2024-04-23T19:56:29.700Z,4.90
2024-04-23T19:59:01.440Z,4.88
2024-04-23T20:01:29.403Z,4.72
2024-04-23T20:03:56.618Z,5.38
2024-04-23T20:06:23.342Z,5.00
2024-04-23T20:08:50.429Z,5.85
2024-04-23T20:11:17.407Z,6.07
2024-04-23T20:13:44.233Z,5.85
2024-04-23T20:16:10.997Z,5.70
2024-04-23T20:18:38.461Z,5.72
2024-04-23T20:21:11.934Z,6.10
2024-04-23T20:23:38.679Z,5.88
2024-04-23T20:26:05.416Z,5.57
2024-04-23T20:28:32.167Z,4.30
2024-04-23T20:31:04.421Z,3.70
2024-04-23T20:33:31.252Z,2.90
2024-04-23T20:36:04.943Z,3.28
2024-04-23T20:38:31.756Z,3.00
2024-04-23T20:40:58.550Z,2.53
2024-04-23T20:43:25.289Z,3.10
2024-04-23T20:45:52.000Z,2.30
2024-04-23T20:48:18.853Z,2.45
2024-04-23T20:50:50.656Z,2.40
2024-04-23T20:53:17.423Z,2.65
2024-04-23T20:55:44.246Z,2.55
2024-04-23T20:58:10.926Z,3.67
2024-04-23T21:00:37.676Z,2.28
2024-04-23T21:03:05.007Z,2.50
2024-04-23T21:05:31.846Z,3.35
2024-04-23T21:07:58.676Z,2.35
2024-04-23T21:10:25.870Z,2.40
2024-04-23T21:12:52.742Z,2.58
2024-04-23T21:15:19.485Z,2.00
2024-04-23T21:17:46.290Z,3.00
2024-04-23T21:20:13.148Z,3.30
2024-04-23T21:22:39.926Z,2.65
2024-04-23T21:25:06.814Z,2.60
2024-04-23T21:27:33.503Z,2.30
2024-04-23T21:30:00.254Z,2.10
2024-04-23T21:32:27.265Z,2.13
2024-04-23T21:34:54.068Z,2.47
2024-04-23T21:37:20.803Z,2.75
2024-04-23T21:39:47.602Z,2.15
2024-04-23T21:42:24.446Z,2.10
2024-04-23T21:44:58.356Z,2.90
2024-04-23T21:47:25.264Z,2.58
2024-04-23T21:49:52.095Z,2.15
2024-04-23T21:52:31.102Z,2.67
2024-04-23T21:55:05.928Z,2.53
2024-04-23T21:57:34.343Z,2.40
2024-04-23T22:00:01.092Z,2.05
2024-04-23T22:02:27.970Z,2.80
2024-04-23T22:04:54.812Z,1.70
2024-04-23T22:07:21.638Z,3.08
2024-04-23T22:09:48.335Z,1.67
2024-04-23T22:12:15.111Z,2.42
2024-04-23T22:14:42.212Z,1.48
2024-04-23T22:17:09.036Z,2.00
2024-04-23T22:19:35.878Z,1.88
2024-04-23T22:22:04.071Z,1.90
2024-04-23T22:24:30.860Z,1.70
2024-04-23T22:26:57.673Z,1.58
2024-04-23T22:29:24.396Z,2.13
2024-04-23T22:31:51.175Z,2.75
2024-04-23T22:34:17.957Z,1.90
2024-04-23T22:36:44.730Z,1.98
2024-04-23T22:39:11.490Z,2.42
2024-04-23T22:41:38.219Z,1.55
2024-04-23T22:44:05.151Z,1.60
2024-04-23T22:46:31.925Z,1.60
2024-04-23T22:49:01.873Z,1.50
2024-04-23T22:53:55.480Z,2.17
2024-04-23T22:56:22.285Z,1.38
2024-04-23T22:58:49.347Z,1.25
2024-04-23T23:01:16.182Z,1.60
2024-04-23T23:03:42.981Z,2.33
2024-04-23T23:06:09.690Z,2.30
2024-04-23T23:08:36.434Z,1.30
2024-04-23T23:11:03.631Z,1.73
2024-04-23T23:13:30.430Z,1.10
2024-04-23T23:15:57.297Z,1.10
2024-04-23T23:18:24.029Z,1.38
2024-04-23T23:20:50.737Z,1.08
2024-04-23T23:23:17.478Z,0.82
2024-04-23T23:25:44.303Z,1.02
2024-04-23T23:28:11.141Z,0.63
2024-04-23T23:30:37.970Z,1.00
2024-04-23T23:33:05.198Z,1.15
2024-04-23T23:35:31.984Z,1.10
2024-04-23T23:37:58.772Z,0.88
2024-04-23T23:40:26.796Z,1.15
2024-04-23T23:42:58.063Z,1.20
2024-04-23T23:45:27.606Z,1.42
2024-04-23T23:47:55.874Z,1.35
2024-04-23T23:50:22.870Z,1.30
2024-04-23T23:52:49.754Z,1.52
2024-04-23T23:55:16.489Z,1.55
2024-04-23T23:57:43.229Z,1.65
